sensor_id;sensor_type;location;lat;lon;timestamp;P1;durP1;ratioP1;P2;durP2;ratioP2
48211;SDS011;34000;48.772;9.162;2022-10-22T00:00:22;2.08;;;0.38;;
48211;SDS011;34000;48.772;9.162;2022-10-22T00:02:48;1.55;;;0.40;;
48211;SDS011;34000;48.772;9.162;2022-10-22T00:05:14;1.70;;;0.50;;
48211;SDS011;34000;48.772;9.162;2022-10-22T00:07:40;1.58;;;0.40;;
48211;SDS011;34000;48.772;9.162;2022-10-22T00:10:06;1.00;;;0.50;;
48211;SDS011;34000;48.772;9.162;2022-10-22T00:12:32;0.85;;;0.55;;
48211;SDS011;34000;48.772;9.162;2022-10-22T00:14:58;0.60;;;0.40;;
48211;SDS011;34000;48.772;9.162;2022-10-22T00:17:23;0.80;;;0.50;;
48211;SDS011;34000;48.772;9.162;2022-10-22T00:19:49;0.50;;;0.50;;
48211;SDS011;34000;48.772;9.162;2022-10-22T00:22:14;0.88;;;0.60;;
48211;SDS011;34000;48.772;9.162;2022-10-22T00:24:40;0.95;;;0.43;;
48211;SDS011;34000;48.772;9.162;2022-10-22T00:27:07;1.52;;;0.47;;
48211;SDS011;34000;48.772;9.162;2022-10-22T00:29:34;0.40;;;0.40;;
48211;SDS011;34000;48.772;9.162;2022-10-22T00:32:00;1.70;;;0.50;;
48211;SDS011;34000;48.772;9.162;2022-10-22T00:34:26;0.90;;;0.60;;
48211;SDS011;34000;48.772;9.162;2022-10-22T00:36:52;0.25;;;0.20;;
48211;SDS011;34000;48.772;9.162;2022-10-22T00:39:19;0.80;;;0.35;;
48211;SDS011;34000;48.772;9.162;2022-10-22T00:41:46;1.60;;;0.40;;
48211;SDS011;34000;48.772;9.162;2022-10-22T00:47:16;0.60;;;0.43;;
48211;SDS011;34000;48.772;9.162;2022-10-22T00:49:44;1.48;;;0.30;;
48211;SDS011;34000;48.772;9.162;2022-10-22T00:52:11;1.25;;;0.43;;
48211;SDS011;34000;48.772;9.162;2022-10-22T00:54:37;0.40;;;0.40;;
48211;SDS011;34000;48.772;9.162;2022-10-22T00:57:03;0.65;;;0.55;;
48211;SDS011;34000;48.772;9.162;2022-10-22T00:59:29;0.52;;;0.40;;
48211;SDS011;34000;48.772;9.162;2022-10-22T01:01:56;0.57;;;0.40;;
48211;SDS011;34000;48.772;9.162;2022-10-22T01:04:22;0.60;;;0.35;;
48211;SDS011;34000;48.772;9.162;2022-10-22T01:06:48;0.40;;;0.40;;
48211;SDS011;34000;48.772;9.162;2022-10-22T01:17:40;0.30;;;0.30;;
48211;SDS011;34000;48.772;9.162;2022-10-22T01:25:36;0.50;;;0.50;;
48211;SDS011;34000;48.772;9.162;2022-10-22T01:31:23;1.00;;;0.50;;
48211;SDS011;34000;48.772;9.162;2022-10-22T01:33:52;1.30;;;0.50;;
48211;SDS011;34000;48.772;9.162;2022-10-22T01:36:19;0.80;;;0.60;;
48211;SDS011;34000;48.772;9.162;2022-10-22T01:38:45;0.95;;;0.50;;
48211;SDS011;34000;48.772;9.162;2022-10-22T01:41:11;1.63;;;0.50;;
48211;SDS011;34000;48.772;9.162;2022-10-22T01:43:37;0.40;;;0.30;;
48211;SDS011;34000;48.772;9.162;2022-10-22T01:46:03;0.38;;;0.38;;
48211;SDS011;34000;48.772;9.162;2022-10-22T01:54:07;1.58;;;0.50;;
48211;SDS011;34000;48.772;9.162;2022-10-22T02:02:49;0.95;;;0.40;;
48211;SDS011;34000;48.772;9.162;2022-10-22T02:05:21;0.63;;;0.45;;
48211;SDS011;34000;48.772;9.162;2022-10-22T02:07:49;3.53;;;0.43;;
48211;SDS011;34000;48.772;9.162;2022-10-22T02:10:19;0.60;;;0.40;;
48211;SDS011;34000;48.772;9.162;2022-10-22T02:12:51;1.33;;;0.52;;
48211;SDS011;34000;48.772;9.162;2022-10-22T02:15:19;0.75;;;0.40;;
48211;SDS011;34000;48.772;9.162;2022-10-22T02:17:47;0.50;;;0.50;;
48211;SDS011;34000;48.772;9.162;2022-10-22T02:20:17;0.63;;;0.40;;
48211;SDS011;34000;48.772;9.162;2022-10-22T02:22:44;1.00;;;0.50;;
48211;SDS011;34000;48.772;9.162;2022-10-22T02:25:11;0.63;;;0.55;;
48211;SDS011;34000;48.772;9.162;2022-10-22T02:27:48;1.92;;;0.40;;
48211;SDS011;34000;48.772;9.162;2022-10-22T02:30:30;0.93;;;0.47;;
48211;SDS011;34000;48.772;9.162;2022-10-22T02:32:59;0.43;;;0.43;;
48211;SDS011;34000;48.772;9.162;2022-10-22T02:35:28;3.45;;;0.43;;
48211;SDS011;34000;48.772;9.162;2022-10-22T02:37:55;1.25;;;0.38;;
48211;SDS011;34000;48.772;9.162;2022-10-22T02:40:22;0.75;;;0.40;;
48211;SDS011;34000;48.772;9.162;2022-10-22T02:42:49;0.95;;;0.40;;
48211;SDS011;34000;48.772;9.162;2022-10-22T02:45:16;2.42;;;0.50;;
48211;SDS011;34000;48.772;9.162;2022-10-22T02:47:43;0.50;;;0.40;;
48211;SDS011;34000;48.772;9.162;2022-10-22T02:50:09;0.55;;;0.40;;
48211;SDS011;34000;48.772;9.162;2022-10-22T02:52:35;1.80;;;0.50;;
48211;SDS011;34000;48.772;9.162;2022-10-22T02:55:00;0.85;;;0.40;;
48211;SDS011;34000;48.772;9.162;2022-10-22T02:57:26;0.30;;;0.30;;
48211;SDS011;34000;48.772;9.162;2022-10-22T02:59:52;3.00;;;0.55;;
48211;SDS011;34000;48.772;9.162;2022-10-22T03:02:17;0.95;;;0.40;;
48211;SDS011;34000;48.772;9.162;2022-10-22T03:04:43;0.25;;;0.25;;
48211;SDS011;34000;48.772;9.162;2022-10-22T03:07:09;0.30;;;0.30;;
48211;SDS011;34000;48.772;9.162;2022-10-22T03:09:34;0.40;;;0.40;;
48211;SDS011;34000;48.772;9.162;2022-10-22T03:12:00;0.40;;;0.40;;
48211;SDS011;34000;48.772;9.162;2022-10-22T03:14:25;2.38;;;0.40;;
48211;SDS011;34000;48.772;9.162;2022-10-22T03:16:51;2.30;;;0.40;;
48211;SDS011;34000;48.772;9.162;2022-10-22T03:19:16;2.20;;;0.50;;
48211;SDS011;34000;48.772;9.162;2022-10-22T03:24:26;1.63;;;0.57;;
48211;SDS011;34000;48.772;9.162;2022-10-22T03:26:55;0.30;;;0.30;;
48211;SDS011;34000;48.772;9.162;2022-10-22T03:29:21;0.55;;;0.30;;
48211;SDS011;34000;48.772;9.162;2022-10-22T03:31:50;1.65;;;0.50;;
48211;SDS011;34000;48.772;9.162;2022-10-22T03:34:16;0.90;;;0.40;;
48211;SDS011;34000;48.772;9.162;2022-10-22T03:36:42;0.45;;;0.43;;
48211;SDS011;34000;48.772;9.162;2022-10-22T03:39:08;2.85;;;0.45;;
48211;SDS011;34000;48.772;9.162;2022-10-22T03:41:37;0.52;;;0.40;;
48211;SDS011;34000;48.772;9.162;2022-10-22T03:44:02;0.73;;;0.40;;
48211;SDS011;34000;48.772;9.162;2022-10-22T03:46:29;1.60;;;0.30;;
48211;SDS011;34000;48.772;9.162;2022-10-22T03:48:54;0.45;;;0.30;;
48211;SDS011;34000;48.772;9.162;2022-10-22T03:51:20;1.15;;;0.40;;
48211;SDS011;34000;48.772;9.162;2022-10-22T03:53:46;0.55;;;0.40;;
48211;SDS011;34000;48.772;9.162;2022-10-22T03:56:11;2.05;;;0.50;;
48211;SDS011;34000;48.772;9.162;2022-10-22T03:58:38;1.65;;;0.40;;
48211;SDS011;34000;48.772;9.162;2022-10-22T04:01:08;1.05;;;0.47;;
48211;SDS011;34000;48.772;9.162;2022-10-22T04:03:35;0.30;;;0.30;;
48211;SDS011;34000;48.772;9.162;2022-10-22T04:06:04;0.55;;;0.50;;
48211;SDS011;34000;48.772;9.162;2022-10-22T04:08:32;0.50;;;0.50;;
48211;SDS011;34000;48.772;9.162;2022-10-22T04:10:58;0.55;;;0.52;;
48211;SDS011;34000;48.772;9.162;2022-10-22T04:13:24;1.83;;;0.40;;
48211;SDS011;34000;48.772;9.162;2022-10-22T04:15:50;0.75;;;0.50;;
48211;SDS011;34000;48.772;9.162;2022-10-22T04:18:16;1.30;;;0.50;;
48211;SDS011;34000;48.772;9.162;2022-10-22T04:20:46;1.13;;;0.50;;
48211;SDS011;34000;48.772;9.162;2022-10-22T04:23:12;3.00;;;0.50;;
48211;SDS011;34000;48.772;9.162;2022-10-22T04:25:37;0.50;;;0.43;;
48211;SDS011;34000;48.772;9.162;2022-10-22T04:28:07;2.78;;;0.93;;
48211;SDS011;34000;48.772;9.162;2022-10-22T04:30:34;0.63;;;0.40;;
48211;SDS011;34000;48.772;9.162;2022-10-22T04:33:00;2.17;;;0.43;;
48211;SDS011;34000;48.772;9.162;2022-10-22T04:35:27;0.32;;;0.32;;
48211;SDS011;34000;48.772;9.162;2022-10-22T04:37:53;1.33;;;0.43;;
48211;SDS011;34000;48.772;9.162;2022-10-22T04:40:19;2.63;;;0.63;;
48211;SDS011;34000;48.772;9.162;2022-10-22T04:42:45;0.28;;;0.25;;
48211;SDS011;34000;48.772;9.162;2022-10-22T04:45:10;0.50;;;0.30;;
48211;SDS011;34000;48.772;9.162;2022-10-22T04:47:36;0.38;;;0.38;;
48211;SDS011;34000;48.772;9.162;2022-10-22T04:50:02;0.35;;;0.35;;
48211;SDS011;34000;48.772;9.162;2022-10-22T04:52:28;0.63;;;0.60;;
48211;SDS011;34000;48.772;9.162;2022-10-22T04:54:54;3.63;;;0.50;;
48211;SDS011;34000;48.772;9.162;2022-10-22T04:57:20;0.47;;;0.38;;
48211;SDS011;34000;48.772;9.162;2022-10-22T04:59:45;0.45;;;0.45;;
48211;SDS011;34000;48.772;9.162;2022-10-22T05:02:11;1.75;;;1.05;;
48211;SDS011;34000;48.772;9.162;2022-10-22T05:04:37;0.40;;;0.40;;
48211;SDS011;34000;48.772;9.162;2022-10-22T05:07:02;0.32;;;0.32;;
48211;SDS011;34000;48.772;9.162;2022-10-22T05:09:28;0.55;;;0.40;;
48211;SDS011;34000;48.772;9.162;2022-10-22T05:11:53;0.95;;;0.40;;
48211;SDS011;34000;48.772;9.162;2022-10-22T05:14:22;0.40;;;0.40;;
48211;SDS011;34000;48.772;9.162;2022-10-22T05:16:49;0.70;;;0.50;;
48211;SDS011;34000;48.772;9.162;2022-10-22T05:19:20;0.30;;;0.30;;
48211;SDS011;34000;48.772;9.162;2022-10-22T05:21:51;0.85;;;0.40;;
48211;SDS011;34000;48.772;9.162;2022-10-22T05:24:17;1.55;;;0.57;;
48211;SDS011;34000;48.772;9.162;2022-10-22T05:26:43;0.38;;;0.38;;
48211;SDS011;34000;48.772;9.162;2022-10-22T05:29:09;0.57;;;0.50;;
48211;SDS011;34000;48.772;9.162;2022-10-22T05:31:34;1.75;;;0.40;;
48211;SDS011;34000;48.772;9.162;2022-10-22T05:34:00;1.52;;;0.43;;
48211;SDS011;34000;48.772;9.162;2022-10-22T05:36:25;1.30;;;0.52;;
48211;SDS011;34000;48.772;9.162;2022-10-22T05:38:51;0.93;;;0.40;;
48211;SDS011;34000;48.772;9.162;2022-10-22T05:41:19;1.67;;;0.50;;
48211;SDS011;34000;48.772;9.162;2022-10-22T05:43:46;0.73;;;0.50;;
48211;SDS011;34000;48.772;9.162;2022-10-22T05:46:13;0.57;;;0.57;;
48211;SDS011;34000;48.772;9.162;2022-10-22T05:48:43;0.60;;;0.40;;
48211;SDS011;34000;48.772;9.162;2022-10-22T05:51:12;1.95;;;0.77;;
48211;SDS011;34000;48.772;9.162;2022-10-22T05:53:39;0.82;;;0.60;;
48211;SDS011;34000;48.772;9.162;2022-10-22T05:56:15;0.50;;;0.50;;
48211;SDS011;34000;48.772;9.162;2022-10-22T05:58:41;0.68;;;0.40;;
48211;SDS011;34000;48.772;9.162;2022-10-22T06:01:12;0.70;;;0.60;;
48211;SDS011;34000;48.772;9.162;2022-10-22T06:03:43;0.50;;;0.50;;
48211;SDS011;34000;48.772;9.162;2022-10-22T06:06:17;0.82;;;0.40;;
48211;SDS011;34000;48.772;9.162;2022-10-22T06:08:46;4.55;;;0.50;;
48211;SDS011;34000;48.772;9.162;2022-10-22T06:11:14;1.77;;;0.60;;
48211;SDS011;34000;48.772;9.162;2022-10-22T06:13:42;0.52;;;0.52;;
48211;SDS011;34000;48.772;9.162;2022-10-22T06:16:08;0.30;;;0.30;;
48211;SDS011;34000;48.772;9.162;2022-10-22T06:18:34;0.50;;;0.40;;
48211;SDS011;34000;48.772;9.162;2022-10-22T06:21:04;1.08;;;0.50;;
48211;SDS011;34000;48.772;9.162;2022-10-22T06:23:34;2.05;;;0.70;;
48211;SDS011;34000;48.772;9.162;2022-10-22T06:26:00;0.43;;;0.43;;
48211;SDS011;34000;48.772;9.162;2022-10-22T06:28:26;0.52;;;0.50;;
48211;SDS011;34000;48.772;9.162;2022-10-22T06:30:52;0.40;;;0.40;;
48211;SDS011;34000;48.772;9.162;2022-10-22T06:33:18;0.70;;;0.50;;
48211;SDS011;34000;48.772;9.162;2022-10-22T06:35:43;1.00;;;0.70;;
48211;SDS011;34000;48.772;9.162;2022-10-22T06:38:09;0.77;;;0.43;;
48211;SDS011;34000;48.772;9.162;2022-10-22T06:40:35;2.67;;;0.60;;
48211;SDS011;34000;48.772;9.162;2022-10-22T06:43:00;2.63;;;0.70;;
48211;SDS011;34000;48.772;9.162;2022-10-22T06:45:26;1.10;;;0.50;;
48211;SDS011;34000;48.772;9.162;2022-10-22T06:47:52;0.40;;;0.40;;
48211;SDS011;34000;48.772;9.162;2022-10-22T06:50:18;1.20;;;0.55;;
48211;SDS011;34000;48.772;9.162;2022-10-22T06:52:43;0.50;;;0.50;;
48211;SDS011;34000;48.772;9.162;2022-10-22T06:55:09;0.50;;;0.50;;
48211;SDS011;34000;48.772;9.162;2022-10-22T06:57:35;0.65;;;0.52;;
48211;SDS011;34000;48.772;9.162;2022-10-22T07:00:00;2.28;;;0.50;;
48211;SDS011;34000;48.772;9.162;2022-10-22T07:02:26;1.67;;;0.50;;
48211;SDS011;34000;48.772;9.162;2022-10-22T07:04:51;1.60;;;1.25;;
48211;SDS011;34000;48.772;9.162;2022-10-22T07:07:17;0.77;;;0.40;;
48211;SDS011;34000;48.772;9.162;2022-10-22T07:09:43;0.73;;;0.40;;
48211;SDS011;34000;48.772;9.162;2022-10-22T07:12:11;0.40;;;0.40;;
48211;SDS011;34000;48.772;9.162;2022-10-22T07:14:37;2.38;;;0.52;;
48211;SDS011;34000;48.772;9.162;2022-10-22T07:17:03;0.55;;;0.47;;
48211;SDS011;34000;48.772;9.162;2022-10-22T07:19:29;0.60;;;0.35;;
48211;SDS011;34000;48.772;9.162;2022-10-22T07:21:55;1.80;;;0.60;;
48211;SDS011;34000;48.772;9.162;2022-10-22T07:24:21;2.70;;;0.60;;
48211;SDS011;34000;48.772;9.162;2022-10-22T07:26:46;0.68;;;0.57;;
48211;SDS011;34000;48.772;9.162;2022-10-22T07:29:12;0.65;;;0.57;;
48211;SDS011;34000;48.772;9.162;2022-10-22T07:31:39;0.60;;;0.50;;
48211;SDS011;34000;48.772;9.162;2022-10-22T07:34:05;2.33;;;0.40;;
48211;SDS011;34000;48.772;9.162;2022-10-22T07:36:31;0.40;;;0.40;;
48211;SDS011;34000;48.772;9.162;2022-10-22T07:38:57;1.30;;;0.40;;
48211;SDS011;34000;48.772;9.162;2022-10-22T07:41:24;3.33;;;0.60;;
48211;SDS011;34000;48.772;9.162;2022-10-22T07:43:50;2.03;;;0.60;;
48211;SDS011;34000;48.772;9.162;2022-10-22T07:46:16;0.50;;;0.50;;
48211;SDS011;34000;48.772;9.162;2022-10-22T07:48:42;1.25;;;0.55;;
48211;SDS011;34000;48.772;9.162;2022-10-22T07:51:08;0.98;;;0.43;;
48211;SDS011;34000;48.772;9.162;2022-10-22T07:53:34;0.57;;;0.57;;
48211;SDS011;34000;48.772;9.162;2022-10-22T07:56:00;1.52;;;0.60;;
48211;SDS011;34000;48.772;9.162;2022-10-22T07:58:25;0.50;;;0.40;;
48211;SDS011;34000;48.772;9.162;2022-10-22T08:00:55;0.93;;;0.47;;
48211;SDS011;34000;48.772;9.162;2022-10-22T08:03:22;0.50;;;0.50;;
48211;SDS011;34000;48.772;9.162;2022-10-22T08:05:48;0.60;;;0.60;;
48211;SDS011;34000;48.772;9.162;2022-10-22T08:08:15;1.88;;;0.50;;
48211;SDS011;34000;48.772;9.162;2022-10-22T08:10:41;2.22;;;0.55;;
48211;SDS011;34000;48.772;9.162;2022-10-22T08:13:07;0.93;;;0.50;;
48211;SDS011;34000;48.772;9.162;2022-10-22T08:15:33;0.60;;;0.60;;
48211;SDS011;34000;48.772;9.162;2022-10-22T08:17:58;1.85;;;0.60;;
48211;SDS011;34000;48.772;9.162;2022-10-22T08:20:24;4.93;;;0.57;;
48211;SDS011;34000;48.772;9.162;2022-10-22T08:22:50;3.83;;;0.95;;
48211;SDS011;34000;48.772;9.162;2022-10-22T08:25:16;2.10;;;0.50;;
48211;SDS011;34000;48.772;9.162;2022-10-22T08:27:42;0.82;;;0.50;;
48211;SDS011;34000;48.772;9.162;2022-10-22T08:30:09;2.17;;;0.60;;
48211;SDS011;34000;48.772;9.162;2022-10-22T08:32:35;1.52;;;0.50;;
48211;SDS011;34000;48.772;9.162;2022-10-22T08:35:01;0.52;;;0.52;;
48211;SDS011;34000;48.772;9.162;2022-10-22T08:37:27;4.65;;;0.70;;
48211;SDS011;34000;48.772;9.162;2022-10-22T08:39:52;1.52;;;0.70;;
48211;SDS011;34000;48.772;9.162;2022-10-22T08:42:30;0.52;;;0.50;;
48211;SDS011;34000;48.772;9.162;2022-10-22T08:45:23;0.70;;;0.60;;
48211;SDS011;34000;48.772;9.162;2022-10-22T08:50:52;0.70;;;0.70;;
48211;SDS011;34000;48.772;9.162;2022-10-22T08:53:22;0.77;;;0.50;;
48211;SDS011;34000;48.772;9.162;2022-10-22T08:55:55;0.47;;;0.47;;
48211;SDS011;34000;48.772;9.162;2022-10-22T09:08:37;0.77;;;0.45;;
48211;SDS011;34000;48.772;9.162;2022-10-22T09:13:43;0.40;;;0.40;;
48211;SDS011;34000;48.772;9.162;2022-10-22T09:16:13;0.75;;;0.43;;
48211;SDS011;34000;48.772;9.162;2022-10-22T09:18:45;1.45;;;0.43;;
48211;SDS011;34000;48.772;9.162;2022-10-22T09:23:55;1.02;;;0.60;;
48211;SDS011;34000;48.772;9.162;2022-10-22T09:26:26;0.77;;;0.40;;
48211;SDS011;34000;48.772;9.162;2022-10-22T09:28:52;0.43;;;0.43;;
48211;SDS011;34000;48.772;9.162;2022-10-22T09:31:18;0.77;;;0.60;;
48211;SDS011;34000;48.772;9.162;2022-10-22T09:33:44;0.75;;;0.43;;
48211;SDS011;34000;48.772;9.162;2022-10-22T09:36:18;1.75;;;0.50;;
48211;SDS011;34000;48.772;9.162;2022-10-22T09:38:55;1.75;;;0.55;;
48211;SDS011;34000;48.772;9.162;2022-10-22T09:41:26;2.47;;;0.40;;
48211;SDS011;34000;48.772;9.162;2022-10-22T09:43:56;0.45;;;0.40;;
48211;SDS011;34000;48.772;9.162;2022-10-22T09:46:23;0.90;;;0.60;;
48211;SDS011;34000;48.772;9.162;2022-10-22T09:51:23;0.68;;;0.60;;
48211;SDS011;34000;48.772;9.162;2022-10-22T09:54:00;0.70;;;0.50;;
48211;SDS011;34000;48.772;9.162;2022-10-22T09:56:39;1.35;;;0.52;;
48211;SDS011;34000;48.772;9.162;2022-10-22T09:59:12;0.73;;;0.60;;
48211;SDS011;34000;48.772;9.162;2022-10-22T10:01:39;0.73;;;0.50;;
48211;SDS011;34000;48.772;9.162;2022-10-22T10:04:06;0.82;;;0.70;;
48211;SDS011;34000;48.772;9.162;2022-10-22T10:06:34;1.65;;;0.55;;
48211;SDS011;34000;48.772;9.162;2022-10-22T10:09:07;0.47;;;0.40;;
48211;SDS011;34000;48.772;9.162;2022-10-22T10:17:40;0.85;;;0.35;;
48211;SDS011;34000;48.772;9.162;2022-10-22T10:20:30;0.88;;;0.60;;
48211;SDS011;34000;48.772;9.162;2022-10-22T10:23:07;0.40;;;0.40;;
48211;SDS011;34000;48.772;9.162;2022-10-22T10:25:36;0.85;;;0.40;;
48211;SDS011;34000;48.772;9.162;2022-10-22T10:28:23;1.55;;;0.60;;
48211;SDS011;34000;48.772;9.162;2022-10-22T10:31:03;0.50;;;0.45;;
48211;SDS011;34000;48.772;9.162;2022-10-22T10:39:27;0.50;;;0.40;;
48211;SDS011;34000;48.772;9.162;2022-10-22T10:44:52;0.40;;;0.30;;
48211;SDS011;34000;48.772;9.162;2022-10-22T10:58:55;1.35;;;0.43;;
48211;SDS011;34000;48.772;9.162;2022-10-22T11:01:31;2.50;;;0.60;;
48211;SDS011;34000;48.772;9.162;2022-10-22T11:06:43;0.77;;;0.40;;
48211;SDS011;34000;48.772;9.162;2022-10-22T11:09:17;0.63;;;0.40;;
48211;SDS011;34000;48.772;9.162;2022-10-22T11:11:48;0.80;;;0.40;;
48211;SDS011;34000;48.772;9.162;2022-10-22T11:14:19;0.30;;;0.30;;
48211;SDS011;34000;48.772;9.162;2022-10-22T11:19:19;1.75;;;0.52;;
48211;SDS011;34000;48.772;9.162;2022-10-22T11:22:02;0.63;;;0.50;;
48211;SDS011;34000;48.772;9.162;2022-10-22T11:24:32;1.05;;;0.40;;
48211;SDS011;34000;48.772;9.162;2022-10-22T11:27:10;2.15;;;0.40;;
48211;SDS011;34000;48.772;9.162;2022-10-22T11:29:41;2.05;;;0.40;;
48211;SDS011;34000;48.772;9.162;2022-10-22T11:32:10;0.35;;;0.30;;
48211;SDS011;34000;48.772;9.162;2022-10-22T11:37:08;0.55;;;0.45;;
48211;SDS011;34000;48.772;9.162;2022-10-22T11:42:15;4.68;;;0.40;;
48211;SDS011;34000;48.772;9.162;2022-10-22T11:47:52;2.10;;;0.70;;
48211;SDS011;34000;48.772;9.162;2022-10-22T11:53:01;1.27;;;0.50;;
48211;SDS011;34000;48.772;9.162;2022-10-22T12:16:36;1.05;;;0.50;;
48211;SDS011;34000;48.772;9.162;2022-10-22T12:21:44;1.30;;;0.55;;
48211;SDS011;34000;48.772;9.162;2022-10-22T12:24:14;0.80;;;0.57;;
48211;SDS011;34000;48.772;9.162;2022-10-22T12:26:41;1.40;;;0.60;;
48211;SDS011;34000;48.772;9.162;2022-10-22T12:29:11;4.18;;;0.60;;
48211;SDS011;34000;48.772;9.162;2022-10-22T12:31:39;2.08;;;0.73;;
48211;SDS011;34000;48.772;9.162;2022-10-22T12:34:06;3.08;;;0.60;;
48211;SDS011;34000;48.772;9.162;2022-10-22T12:36:32;3.30;;;0.50;;
48211;SDS011;34000;48.772;9.162;2022-10-22T12:39:03;1.77;;;0.60;;
48211;SDS011;34000;48.772;9.162;2022-10-22T12:41:35;0.95;;;0.40;;
48211;SDS011;34000;48.772;9.162;2022-10-22T12:44:03;0.98;;;0.60;;
48211;SDS011;34000;48.772;9.162;2022-10-22T12:46:31;1.23;;;0.47;;
48211;SDS011;34000;48.772;9.162;2022-10-22T12:48:58;3.83;;;0.60;;
48211;SDS011;34000;48.772;9.162;2022-10-22T12:51:30;0.90;;;0.50;;
48211;SDS011;34000;48.772;9.162;2022-10-22T12:53:57;0.63;;;0.40;;
48211;SDS011;34000;48.772;9.162;2022-10-22T12:56:28;2.05;;;0.55;;
48211;SDS011;34000;48.772;9.162;2022-10-22T12:59:00;1.77;;;0.45;;
48211;SDS011;34000;48.772;9.162;2022-10-22T13:01:35;0.45;;;0.40;;
48211;SDS011;34000;48.772;9.162;2022-10-22T13:06:43;0.40;;;0.40;;
48211;SDS011;34000;48.772;9.162;2022-10-22T13:09:15;2.58;;;0.80;;
48211;SDS011;34000;48.772;9.162;2022-10-22T13:14:27;2.05;;;0.70;;
48211;SDS011;34000;48.772;9.162;2022-10-22T13:30:36;0.98;;;0.55;;
48211;SDS011;34000;48.772;9.162;2022-10-22T13:33:03;1.42;;;0.50;;
48211;SDS011;34000;48.772;9.162;2022-10-22T13:35:50;2.40;;;0.70;;
48211;SDS011;34000;48.772;9.162;2022-10-22T13:38:17;1.88;;;0.60;;
48211;SDS011;34000;48.772;9.162;2022-10-22T13:40:45;1.08;;;0.50;;
48211;SDS011;34000;48.772;9.162;2022-10-22T13:43:11;1.52;;;0.75;;
48211;SDS011;34000;48.772;9.162;2022-10-22T13:45:37;2.15;;;0.30;;
48211;SDS011;34000;48.772;9.162;2022-10-22T13:48:03;0.30;;;0.30;;
48211;SDS011;34000;48.772;9.162;2022-10-22T13:50:29;1.20;;;0.50;;
48211;SDS011;34000;48.772;9.162;2022-10-22T13:52:55;1.60;;;0.60;;
48211;SDS011;34000;48.772;9.162;2022-10-22T13:55:23;2.92;;;0.85;;
48211;SDS011;34000;48.772;9.162;2022-10-22T13:57:54;1.48;;;0.60;;
48211;SDS011;34000;48.772;9.162;2022-10-22T14:00:21;1.48;;;0.60;;
48211;SDS011;34000;48.772;9.162;2022-10-22T14:02:51;1.20;;;0.43;;
48211;SDS011;34000;48.772;9.162;2022-10-22T14:05:18;2.78;;;0.50;;
48211;SDS011;34000;48.772;9.162;2022-10-22T14:07:44;2.05;;;0.70;;
48211;SDS011;34000;48.772;9.162;2022-10-22T14:10:14;2.70;;;0.60;;
48211;SDS011;34000;48.772;9.162;2022-10-22T14:15:09;1.35;;;0.50;;
48211;SDS011;34000;48.772;9.162;2022-10-22T14:17:37;3.17;;;0.70;;
48211;SDS011;34000;48.772;9.162;2022-10-22T14:20:03;1.00;;;0.52;;
48211;SDS011;34000;48.772;9.162;2022-10-22T14:22:29;2.33;;;1.00;;
48211;SDS011;34000;48.772;9.162;2022-10-22T14:24:55;0.50;;;0.38;;
48211;SDS011;34000;48.772;9.162;2022-10-22T14:27:21;3.00;;;0.65;;
48211;SDS011;34000;48.772;9.162;2022-10-22T14:29:47;0.88;;;0.50;;
48211;SDS011;34000;48.772;9.162;2022-10-22T14:32:14;1.40;;;0.75;;
48211;SDS011;34000;48.772;9.162;2022-10-22T14:34:41;3.33;;;0.90;;
48211;SDS011;34000;48.772;9.162;2022-10-22T14:37:17;3.97;;;0.85;;
48211;SDS011;34000;48.772;9.162;2022-10-22T14:39:44;2.58;;;0.50;;
48211;SDS011;34000;48.772;9.162;2022-10-22T14:42:11;1.63;;;0.55;;
48211;SDS011;34000;48.772;9.162;2022-10-22T14:44:38;0.98;;;0.60;;
48211;SDS011;34000;48.772;9.162;2022-10-22T14:47:04;1.60;;;0.50;;
48211;SDS011;34000;48.772;9.162;2022-10-22T14:49:30;2.35;;;0.50;;
48211;SDS011;34000;48.772;9.162;2022-10-22T14:51:56;2.70;;;0.50;;
48211;SDS011;34000;48.772;9.162;2022-10-22T14:54:21;1.88;;;0.55;;
48211;SDS011;34000;48.772;9.162;2022-10-22T14:56:47;0.73;;;0.40;;
48211;SDS011;34000;48.772;9.162;2022-10-22T14:59:12;1.88;;;0.60;;
48211;SDS011;34000;48.772;9.162;2022-10-22T15:01:38;1.70;;;0.73;;
48211;SDS011;34000;48.772;9.162;2022-10-22T15:04:04;0.82;;;0.68;;
48211;SDS011;34000;48.772;9.162;2022-10-22T15:06:30;1.52;;;0.50;;
48211;SDS011;34000;48.772;9.162;2022-10-22T15:08:55;2.38;;;1.00;;
48211;SDS011;34000;48.772;9.162;2022-10-22T15:11:21;0.85;;;0.70;;
48211;SDS011;34000;48.772;9.162;2022-10-22T15:13:46;2.05;;;0.90;;
48211;SDS011;34000;48.772;9.162;2022-10-22T15:16:13;4.05;;;0.63;;
48211;SDS011;34000;48.772;9.162;2022-10-22T15:18:40;2.42;;;0.80;;
48211;SDS011;34000;48.772;9.162;2022-10-22T15:21:14;2.45;;;0.93;;
48211;SDS011;34000;48.772;9.162;2022-10-22T15:23:44;2.53;;;0.60;;
48211;SDS011;34000;48.772;9.162;2022-10-22T15:26:10;3.50;;;0.63;;
48211;SDS011;34000;48.772;9.162;2022-10-22T15:28:37;1.13;;;0.75;;
48211;SDS011;34000;48.772;9.162;2022-10-22T15:31:04;2.33;;;0.65;;
48211;SDS011;34000;48.772;9.162;2022-10-22T15:33:30;3.50;;;0.90;;
48211;SDS011;34000;48.772;9.162;2022-10-22T15:35:56;2.45;;;0.80;;
48211;SDS011;34000;48.772;9.162;2022-10-22T15:38:26;1.38;;;0.73;;
48211;SDS011;34000;48.772;9.162;2022-10-22T15:40:59;1.75;;;0.80;;
48211;SDS011;34000;48.772;9.162;2022-10-22T15:43:25;2.53;;;0.73;;
48211;SDS011;34000;48.772;9.162;2022-10-22T15:45:55;3.30;;;1.13;;
48211;SDS011;34000;48.772;9.162;2022-10-22T15:48:34;2.90;;;1.08;;
48211;SDS011;34000;48.772;9.162;2022-10-22T15:51:00;2.40;;;1.00;;
48211;SDS011;34000;48.772;9.162;2022-10-22T15:53:31;1.85;;;0.60;;
48211;SDS011;34000;48.772;9.162;2022-10-22T15:55:56;1.40;;;0.82;;
48211;SDS011;34000;48.772;9.162;2022-10-22T15:58:22;1.98;;;1.17;;
48211;SDS011;34000;48.772;9.162;2022-10-22T16:00:48;4.20;;;1.20;;
48211;SDS011;34000;48.772;9.162;2022-10-22T16:03:13;4.50;;;2.10;;
48211;SDS011;34000;48.772;9.162;2022-10-22T16:05:39;4.82;;;1.50;;
48211;SDS011;34000;48.772;9.162;2022-10-22T16:08:04;6.35;;;1.50;;
48211;SDS011;34000;48.772;9.162;2022-10-22T16:10:30;1.85;;;1.40;;
48211;SDS011;34000;48.772;9.162;2022-10-22T16:12:55;3.92;;;2.10;;
48211;SDS011;34000;48.772;9.162;2022-10-22T16:15:21;4.00;;;2.60;;
48211;SDS011;34000;48.772;9.162;2022-10-22T16:17:46;7.75;;;2.55;;
48211;SDS011;34000;48.772;9.162;2022-10-22T16:20:12;6.03;;;3.42;;
48211;SDS011;34000;48.772;9.162;2022-10-22T16:22:38;5.63;;;3.72;;
48211;SDS011;34000;48.772;9.162;2022-10-22T16:25:03;6.30;;;3.88;;
48211;SDS011;34000;48.772;9.162;2022-10-22T16:27:29;7.50;;;4.55;;
48211;SDS011;34000;48.772;9.162;2022-10-22T16:29:55;5.18;;;4.32;;
48211;SDS011;34000;48.772;9.162;2022-10-22T16:32:20;5.30;;;4.47;;
48211;SDS011;34000;48.772;9.162;2022-10-22T16:34:47;8.45;;;4.93;;
48211;SDS011;34000;48.772;9.162;2022-10-22T16:37:12;5.40;;;4.57;;
48211;SDS011;34000;48.772;9.162;2022-10-22T16:39:38;9.40;;;4.90;;
48211;SDS011;34000;48.772;9.162;2022-10-22T16:42:03;9.77;;;4.93;;
48211;SDS011;34000;48.772;9.162;2022-10-22T16:44:29;14.32;;;5.00;;
48211;SDS011;34000;48.772;9.162;2022-10-22T16:46:55;6.13;;;5.07;;
48211;SDS011;34000;48.772;9.162;2022-10-22T16:49:21;7.25;;;5.05;;
48211;SDS011;34000;48.772;9.162;2022-10-22T16:51:46;9.05;;;4.35;;
48211;SDS011;34000;48.772;9.162;2022-10-22T16:54:12;6.68;;;4.85;;
48211;SDS011;34000;48.772;9.162;2022-10-22T16:56:39;8.02;;;5.20;;
48211;SDS011;34000;48.772;9.162;2022-10-22T16:59:05;7.75;;;5.07;;
48211;SDS011;34000;48.772;9.162;2022-10-22T17:01:31;10.82;;;5.15;;
48211;SDS011;34000;48.772;9.162;2022-10-22T17:04:00;8.90;;;4.82;;
48211;SDS011;34000;48.772;9.162;2022-10-22T17:06:25;12.48;;;4.80;;
48211;SDS011;34000;48.772;9.162;2022-10-22T17:08:51;8.65;;;3.83;;
48211;SDS011;34000;48.772;9.162;2022-10-22T17:11:21;10.90;;;3.95;;
48211;SDS011;34000;48.772;9.162;2022-10-22T17:13:51;7.37;;;3.67;;